createdAt,value
2022-09-13T00:01:18.815Z,99465.38
2022-09-13T00:03:48.575Z,99473.31
2022-09-13T00:06:19.405Z,99474.91
2022-09-13T00:08:48.623Z,99473.69
2022-09-13T00:11:19.954Z,99465.19
2022-09-13T00:13:48.354Z,99459.25
2022-09-13T00:16:22.600Z,99459.69
2022-09-13T00:18:52.771Z,99461.72
2022-09-13T00:21:24.406Z,99460.28
2022-09-13T00:23:55.003Z,99456.00
2022-09-13T00:26:26.063Z,99460.84
2022-09-13T00:28:57.956Z,99463.28
2022-09-13T00:31:29.246Z,99462.28
2022-09-13T00:34:00.665Z,99458.63
2022-09-13T00:36:29.438Z,99458.25
2022-09-13T00:38:58.013Z,99465.19
2022-09-13T00:41:26.415Z,99452.38
2022-09-13T00:43:57.663Z,99452.94
2022-09-13T00:46:35.467Z,99448.38
2022-09-13T00:49:15.269Z,99452.66
2022-09-13T00:51:49.646Z,99444.50
2022-09-13T00:54:24.048Z,99453.88
2022-09-13T00:56:59.382Z,99450.59
2022-09-13T00:59:32.057Z,99462.97
2022-09-13T01:02:03.585Z,99469.22
2022-09-13T01:04:37.235Z,99454.78
2022-09-13T01:07:11.662Z,99455.84
2022-09-13T01:09:45.659Z,99454.16
2022-09-13T01:12:23.956Z,99459.53
2022-09-13T01:14:53.683Z,99452.69
2022-09-13T01:17:23.975Z,99451.00
2022-09-13T01:19:53.871Z,99451.41
2022-09-13T01:22:52.264Z,99445.06
2022-09-13T01:25:55.883Z,99449.59
2022-09-13T01:29:05.757Z,99446.72
2022-09-13T01:31:46.128Z,99442.03
2022-09-13T01:34:30.009Z,99445.31
2022-09-13T01:37:28.911Z,99447.34
2022-09-13T01:40:09.679Z,99447.91
2022-09-13T01:43:05.444Z,99443.22
2022-09-13T01:45:48.591Z,99445.91
2022-09-13T01:48:24.462Z,99438.75
2022-09-13T01:51:01.824Z,99432.44
2022-09-13T01:53:39.632Z,99436.13
2022-09-13T01:56:13.609Z,99425.94
2022-09-13T01:58:49.419Z,99426.97
2022-09-13T02:01:22.210Z,99423.13
2022-09-13T02:03:57.302Z,99415.50
2022-09-13T02:06:31.668Z,99418.63
2022-09-13T02:09:04.336Z,99419.41
2022-09-13T02:11:34.798Z,99425.28
2022-09-13T02:14:10.837Z,99416.38
2022-09-13T02:16:44.502Z,99401.34
2022-09-13T02:19:19.987Z,99405.06
2022-09-13T02:21:53.847Z,99405.44
2022-09-13T02:24:29.190Z,99399.41
2022-09-13T02:26:59.475Z,99394.72
2022-09-13T02:29:30.028Z,99398.63
2022-09-13T02:32:06.476Z,99401.84
2022-09-13T02:34:42.311Z,99403.66
2022-09-13T02:37:12.987Z,99402.81
2022-09-13T02:39:51.067Z,99397.97
2022-09-13T02:42:24.943Z,99396.94
2022-09-13T02:44:58.571Z,99400.19
2022-09-13T02:47:39.719Z,99389.00
2022-09-13T02:50:29.598Z,99376.38
2022-09-13T02:53:12.828Z,99380.75
2022-09-13T02:55:52.677Z,99375.38
2022-09-13T02:58:27.399Z,99372.75
2022-09-13T03:00:56.246Z,99383.56
2022-09-13T03:03:26.259Z,99376.41
2022-09-13T03:05:55.884Z,99366.63
2022-09-13T03:08:25.537Z,99374.78
2022-09-13T03:11:07.789Z,99372.69
2022-09-13T03:14:02.889Z,99363.00
2022-09-13T03:16:56.859Z,99363.19
2022-09-13T03:19:41.400Z,99365.88
2022-09-13T03:22:49.180Z,99369.84
2022-09-13T03:25:31.949Z,99365.53
2022-09-13T03:28:09.735Z,99368.75
2022-09-13T03:30:45.019Z,99369.31
2022-09-13T03:33:29.215Z,99378.03
2022-09-13T03:36:07.299Z,99383.31
2022-09-13T03:38:43.597Z,99388.97
2022-09-13T03:41:16.806Z,99383.97
2022-09-13T03:43:51.749Z,99393.00
2022-09-13T03:46:26.501Z,99399.88
2022-09-13T03:48:56.783Z,99402.09
2022-09-13T03:51:25.588Z,99418.78
2022-09-13T03:54:00.905Z,99408.19
2022-09-13T03:56:29.337Z,99407.38
2022-09-13T03:58:57.558Z,99413.84
2022-09-13T04:01:26.880Z,99400.00
2022-09-13T04:03:57.008Z,99406.44
2022-09-13T04:06:25.835Z,99411.34
2022-09-13T04:08:55.432Z,99409.69
2022-09-13T04:11:24.501Z,99409.03
2022-09-13T04:13:52.726Z,99408.66
2022-09-13T04:16:20.877Z,99415.44
2022-09-13T04:18:51.191Z,99417.97
2022-09-13T04:21:19.337Z,99425.09
2022-09-13T04:23:51.560Z,99418.00
2022-09-13T04:26:21.527Z,99430.38
2022-09-13T04:28:49.748Z,99430.13
2022-09-13T04:31:17.943Z,99426.06
2022-09-13T04:33:46.536Z,99420.34
2022-09-13T04:36:14.797Z,99425.25
2022-09-13T04:38:42.981Z,99426.66
2022-09-13T04:41:11.614Z,99414.25
2022-09-13T04:43:42.554Z,99418.53
2022-09-13T04:46:13.705Z,99417.47
2022-09-13T04:48:41.872Z,99422.00
2022-09-13T04:51:10.194Z,99423.81
2022-09-13T04:53:38.484Z,99424.63
2022-09-13T04:56:09.517Z,99417.72
2022-09-13T04:58:39.698Z,99419.06
2022-09-13T05:01:10.902Z,99410.47
2022-09-13T05:03:39.426Z,99407.06
2022-09-13T05:06:10.304Z,99404.59
2022-09-13T05:08:39.813Z,99407.22
2022-09-13T05:11:09.022Z,99401.97
2022-09-13T05:13:38.208Z,99401.19
2022-09-13T05:16:09.389Z,99405.84
2022-09-13T05:18:42.036Z,99408.91
2022-09-13T05:21:14.748Z,99402.81
2022-09-13T05:23:43.755Z,99400.88
2022-09-13T05:26:12.354Z,99402.22
2022-09-13T05:28:43.916Z,99412.16
2022-09-13T05:31:17.673Z,99411.84
2022-09-13T05:33:47.450Z,99418.78
2022-09-13T05:36:16.036Z,99414.50
2022-09-13T05:38:46.012Z,99405.84
2022-09-13T05:41:16.093Z,99400.13
2022-09-13T05:43:44.651Z,99403.16
2022-09-13T05:46:16.734Z,99387.44
2022-09-13T05:48:45.271Z,99393.25
2022-09-13T05:51:19.054Z,99392.00
2022-09-13T05:53:49.247Z,99399.03
2022-09-13T05:56:20.243Z,99396.81
2022-09-13T05:58:50.495Z,99402.09
2022-09-13T06:01:23.104Z,99403.72
2022-09-13T06:03:54.870Z,99403.81
2022-09-13T06:06:24.743Z,99414.03
2022-09-13T06:08:55.139Z,99416.75
2022-09-13T06:11:25.384Z,99423.88
2022-09-13T06:13:56.697Z,99419.19
2022-09-13T06:16:26.328Z,99404.63
2022-09-13T06:18:55.055Z,99409.47
2022-09-13T06:21:28.886Z,99413.88
2022-09-13T06:23:57.903Z,99415.72
2022-09-13T06:26:28.978Z,99417.56
2022-09-13T06:28:59.285Z,99415.34
2022-09-13T06:31:29.979Z,99414.41
2022-09-13T06:34:00.624Z,99413.41
2022-09-13T06:36:29.103Z,99403.44
2022-09-13T06:39:00.420Z,99409.03
2022-09-13T06:41:28.754Z,99403.19
2022-09-13T06:43:59.936Z,99402.84
2022-09-13T06:46:32.720Z,99413.28
2022-09-13T06:49:03.380Z,99407.28
2022-09-13T06:51:32.708Z,99405.13
2022-09-13T06:54:01.384Z,99401.88
2022-09-13T06:56:32.462Z,99405.72
2022-09-13T06:59:04.813Z,99405.06
2022-09-13T07:01:37.165Z,99407.41
2022-09-13T07:04:08.360Z,99404.81
2022-09-13T07:06:39.171Z,99407.72
2022-09-13T07:09:10.395Z,99415.72
2022-09-13T07:11:42.669Z,99407.44
2022-09-13T07:14:16.221Z,99415.50
2022-09-13T07:16:46.864Z,99413.69
2022-09-13T07:19:18.362Z,99404.59
2022-09-13T07:21:46.929Z,99406.91
2022-09-13T07:24:15.120Z,99401.19
2022-09-13T07:26:43.529Z,99407.31
2022-09-13T07:29:14.839Z,99401.44
2022-09-13T07:31:47.783Z,99403.31
2022-09-13T07:34:18.955Z,99404.03
2022-09-13T07:36:47.814Z,99404.84
2022-09-13T07:39:21.549Z,99408.53
2022-09-13T07:41:51.178Z,99409.09
2022-09-13T07:44:19.413Z,99406.03
2022-09-13T07:46:49.117Z,99412.09
2022-09-13T07:49:20.350Z,99410.34
2022-09-13T07:51:51.243Z,99407.72
2022-09-13T07:54:20.501Z,99406.44
2022-09-13T07:56:50.317Z,99410.06
2022-09-13T07:59:19.994Z,99404.44
2022-09-13T08:01:51.995Z,99406.06
2022-09-13T08:04:25.526Z,99407.69
2022-09-13T08:06:53.825Z,99397.38
2022-09-13T08:09:22.166Z,99401.44
2022-09-13T08:11:52.850Z,99400.72
2022-09-13T08:14:23.447Z,99407.34
2022-09-13T08:16:56.943Z,99410.69
2022-09-13T08:19:25.343Z,99410.56
2022-09-13T08:21:53.646Z,99414.94
2022-09-13T08:24:23.410Z,99411.16
2022-09-13T08:26:51.933Z,99415.91
2022-09-13T08:29:20.449Z,99425.13
2022-09-13T08:31:48.809Z,99422.81
2022-09-13T08:34:19.866Z,99416.19
2022-09-13T08:36:48.176Z,99422.38
2022-09-13T08:39:16.457Z,99419.34
2022-09-13T08:42:19.893Z,99417.78
2022-09-13T08:44:54.151Z,99416.31
2022-09-13T08:47:39.660Z,99419.88
2022-09-13T08:50:21.917Z,99422.94
2022-09-13T08:53:01.725Z,99425.97
2022-09-13T08:55:47.348Z,99433.19
2022-09-13T08:58:50.521Z,99440.34
2022-09-13T09:01:33.932Z,99441.31
2022-09-13T09:04:13.024Z,99439.97
2022-09-13T09:06:44.412Z,99444.16
2022-09-13T09:09:17.685Z,99449.47
2022-09-13T09:11:51.806Z,99453.53
2022-09-13T09:14:28.273Z,99445.28
2022-09-13T09:17:01.483Z,99445.13
2022-09-13T09:19:35.641Z,99447.91
2022-09-13T09:22:13.108Z,99440.78
2022-09-13T09:24:46.579Z,99446.09
2022-09-13T09:27:17.640Z,99441.16
2022-09-13T09:29:48.837Z,99454.78
2022-09-13T09:32:36.738Z,99443.53
2022-09-13T09:35:18.733Z,99455.88
2022-09-13T09:38:22.772Z,99446.44
2022-09-13T09:40:51.278Z,99452.00
2022-09-13T09:43:27.052Z,99443.69
2022-09-13T09:45:58.161Z,99435.22
2022-09-13T09:48:37.429Z,99448.34
2022-09-13T09:51:10.291Z,99438.53
2022-09-13T09:53:47.161Z,99439.03
2022-09-13T09:56:24.320Z,99445.81
2022-09-13T09:58:54.386Z,99434.22
2022-09-13T10:01:28.753Z,99430.97
2022-09-13T10:04:09.519Z,99428.66
2022-09-13T10:06:40.556Z,99427.94
2022-09-13T10:09:19.537Z,99426.31
2022-09-13T10:11:52.080Z,99417.19
2022-09-13T10:14:37.387Z,99418.50
2022-09-13T10:17:19.315Z,99415.84
2022-09-13T10:19:59.384Z,99411.69
2022-09-13T10:22:28.581Z,99406.97
2022-09-13T10:25:18.960Z,99403.47
2022-09-13T10:27:52.517Z,99405.84
2022-09-13T10:30:36.093Z,99406.72
2022-09-13T10:33:05.967Z,99412.50
2022-09-13T10:35:34.761Z,99407.16
2022-09-13T10:38:03.046Z,99402.31
2022-09-13T10:40:34.749Z,99399.38
2022-09-13T10:43:08.601Z,99395.53
2022-09-13T10:45:38.621Z,99398.88
2022-09-13T10:48:14.355Z,99398.41
2022-09-13T10:51:07.005Z,99398.16
2022-09-13T10:53:39.730Z,99390.47
2022-09-13T10:56:22.652Z,99387.88
2022-09-13T10:58:50.858Z,99385.44
2022-09-13T11:01:40.593Z,99387.13
2022-09-13T11:04:55.156Z,99374.25
2022-09-13T11:07:49.648Z,99377.97
2022-09-13T11:10:30.043Z,99379.41
2022-09-13T11:13:08.457Z,99381.69
2022-09-13T11:15:54.008Z,99371.09
2022-09-13T11:18:43.453Z,99365.44
2022-09-13T11:21:27.818Z,99372.22
2022-09-13T11:24:31.271Z,99362.44
2022-09-13T11:27:06.085Z,99367.84
2022-09-13T11:30:06.136Z,99368.69
2022-09-13T11:32:57.840Z,99362.94
2022-09-13T11:35:49.627Z,99356.69
2022-09-13T11:38:37.647Z,99358.28
2022-09-13T11:41:20.747Z,99364.25
2022-09-13T11:44:13.230Z,99367.41
2022-09-13T11:46:48.162Z,99364.66
2022-09-13T11:49:50.688Z,99366.06
2022-09-13T11:52:26.440Z,99368.38
2022-09-13T11:55:09.571Z,99369.56
2022-09-13T11:57:43.157Z,99376.94
2022-09-13T12:00:22.927Z,99358.84
2022-09-13T12:03:03.746Z,99361.03
2022-09-13T12:05:39.471Z,99365.66
2022-09-13T12:08:14.376Z,99364.06
2022-09-13T12:10:50.090Z,99361.13
2022-09-13T12:13:23.342Z,99364.38
2022-09-13T12:16:04.758Z,99363.25
2022-09-13T12:18:41.823Z,99344.19
2022-09-13T12:21:12.849Z,99352.47
2022-09-13T12:23:51.792Z,99343.56
2022-09-13T12:26:24.985Z,99339.88
2022-09-13T12:28:58.988Z,99337.47
2022-09-13T12:31:30.199Z,99333.72
2022-09-13T12:34:02.075Z,99341.84
2022-09-13T12:37:07.649Z,99337.88
2022-09-13T12:40:26.918Z,99336.94
2022-09-13T12:43:35.071Z,99340.88
2022-09-13T12:46:27.882Z,99337.50
2022-09-13T12:49:16.945Z,99339.41
2022-09-13T12:52:25.293Z,99339.88
2022-09-13T12:55:47.574Z,99330.91
2022-09-13T12:58:49.043Z,99326.91
2022-09-13T13:01:20.798Z,99328.28
2022-09-13T13:03:53.926Z,99325.59
2022-09-13T13:06:40.042Z,99316.56
2022-09-13T13:09:29.175Z,99320.41
2022-09-13T13:11:59.687Z,99324.69
2022-09-13T13:14:53.106Z,99321.72
2022-09-13T13:17:48.136Z,99319.00
2022-09-13T13:20:45.891Z,99319.53
2022-09-13T13:23:34.463Z,99314.50
2022-09-13T13:26:13.524Z,99313.69
2022-09-13T13:29:14.274Z,99311.16
2022-09-13T13:31:46.066Z,99307.22
2022-09-13T13:34:32.200Z,99316.44
2022-09-13T13:37:06.160Z,99304.53
2022-09-13T13:39:41.943Z,99305.00
2022-09-13T13:42:26.413Z,99302.16
2022-09-13T13:45:25.847Z,99302.44
2022-09-13T13:48:15.163Z,99303.22
2022-09-13T13:51:20.826Z,99311.09
2022-09-13T13:53:55.723Z,99302.31
2022-09-13T13:56:47.859Z,99304.88
2022-09-13T13:59:24.323Z,99295.50
2022-09-13T14:01:59.546Z,99294.69
2022-09-13T14:05:04.097Z,99291.44
2022-09-13T14:08:12.335Z,99298.75
2022-09-13T14:10:50.015Z,99294.06
2022-09-13T14:13:41.092Z,99291.91
2022-09-13T14:16:19.204Z,99296.16
2022-09-13T14:19:24.346Z,99294.53
2022-09-13T14:22:18.337Z,99290.81
2022-09-13T14:24:49.712Z,99281.97
2022-09-13T14:27:22.375Z,99284.41
2022-09-13T14:29:55.104Z,99277.00
2022-09-13T14:32:30.178Z,99281.03
2022-09-13T14:35:04.566Z,99287.75
2022-09-13T14:37:35.493Z,99293.84
2022-09-13T14:40:18.421Z,99293.59
2022-09-13T14:42:50.029Z,99286.13
2022-09-13T14:45:23.149Z,99283.94
2022-09-13T14:47:58.143Z,99290.75
2022-09-13T14:50:31.238Z,99283.03
2022-09-13T14:53:03.063Z,99285.69
2022-09-13T14:55:37.120Z,99289.06
2022-09-13T14:58:08.282Z,99287.59
2022-09-13T15:00:50.597Z,99290.03
2022-09-13T15:03:19.777Z,99289.34
2022-09-13T15:05:54.728Z,99290.66
2022-09-13T15:08:46.549Z,99296.63
2022-09-13T15:11:28.974Z,99293.22
2022-09-13T15:14:26.774Z,99293.53
2022-09-13T15:17:02.841Z,99300.50
2022-09-13T15:19:41.484Z,99298.53
2022-09-13T15:22:22.278Z,99297.13
2022-09-13T15:24:54.159Z,99298.53
2022-09-13T15:27:29.483Z,99302.56
2022-09-13T15:30:00.269Z,99305.53
2022-09-13T15:32:36.327Z,99300.78
2022-09-13T15:35:07.714Z,99310.13
2022-09-13T15:37:39.323Z,99305.91
2022-09-13T15:40:22.266Z,99308.25
2022-09-13T15:42:55.763Z,99309.06
2022-09-13T15:45:24.622Z,99302.94
2022-09-13T15:47:54.440Z,99312.56
2022-09-13T15:50:28.642Z,99316.75
2022-09-13T15:52:59.281Z,99317.34
2022-09-13T15:55:30.133Z,99326.19
2022-09-13T15:57:59.509Z,99330.06
2022-09-13T16:00:33.793Z,99331.09
2022-09-13T16:03:11.246Z,99327.41
2022-09-13T16:05:42.880Z,99331.69
2022-09-13T16:08:16.814Z,99332.84
2022-09-13T16:10:46.061Z,99333.81
2022-09-13T16:13:15.198Z,99333.53
2022-09-13T16:15:43.617Z,99322.88
2022-09-13T16:18:16.329Z,99332.19
2022-09-13T16:20:45.084Z,99336.75
2022-09-13T16:23:14.730Z,99340.66
2022-09-13T16:25:43.780Z,99332.31
2022-09-13T16:28:18.526Z,99340.41
2022-09-13T16:30:47.865Z,99333.13
2022-09-13T16:33:19.858Z,99331.19
2022-09-13T16:35:48.298Z,99341.47
2022-09-13T16:38:23.609Z,99345.53
2022-09-13T16:40:53.440Z,99344.50
2022-09-13T16:43:23.593Z,99342.44
2022-09-13T16:45:51.855Z,99337.13
2022-09-13T16:48:25.026Z,99337.94
2022-09-13T16:50:53.328Z,99336.75
2022-09-13T16:53:21.604Z,99338.50
2022-09-13T16:55:49.995Z,99352.56
2022-09-13T16:58:18.176Z,99355.31
2022-09-13T17:00:46.833Z,99347.94
2022-09-13T17:03:15.217Z,99349.75
2022-09-13T17:05:44.788Z,99358.97
2022-09-13T17:08:13.038Z,99364.97
2022-09-13T17:10:41.190Z,99361.41
2022-09-13T17:13:09.529Z,99361.91
2022-09-13T17:15:40.580Z,99368.13
2022-09-13T17:18:10.672Z,99370.38
2022-09-13T17:20:50.989Z,99368.13
2022-09-13T17:23:20.464Z,99361.75
2022-09-13T17:25:50.968Z,99360.72
2022-09-13T17:28:21.992Z,99364.13
2022-09-13T17:30:50.508Z,99370.31
2022-09-13T17:33:18.809Z,99366.38
2022-09-13T17:35:48.236Z,99375.78
2022-09-13T17:38:17.470Z,99384.16
2022-09-13T17:40:47.843Z,99382.41
2022-09-13T17:43:16.108Z,99371.66
2022-09-13T17:45:44.773Z,99373.34
2022-09-13T17:48:13.051Z,99386.97
2022-09-13T17:50:41.479Z,99394.50
2022-09-13T17:53:12.295Z,99396.03
2022-09-13T17:55:49.087Z,99399.28
2022-09-13T17:58:17.715Z,99394.22
2022-09-13T18:00:46.103Z,99403.84
2022-09-13T18:03:14.426Z,99391.00
2022-09-13T18:05:42.684Z,99388.44
2022-09-13T18:08:12.260Z,99389.13
2022-09-13T18:10:58.322Z,99375.84
2022-09-13T18:13:29.001Z,99383.03
2022-09-13T18:16:02.372Z,99382.47
2022-09-13T18:18:30.880Z,99376.13
2022-09-13T18:20:59.259Z,99374.09
2022-09-13T18:23:30.497Z,99361.97
2022-09-13T18:26:03.020Z,99358.00
2022-09-13T18:28:36.031Z,99360.06
2022-09-13T18:31:09.191Z,99365.69
2022-09-13T18:33:37.798Z,99361.78
2022-09-13T18:36:08.833Z,99359.69
2022-09-13T18:38:40.554Z,99357.31
2022-09-13T18:41:13.033Z,99364.56
2022-09-13T18:43:43.902Z,99365.56
2022-09-13T18:46:17.749Z,99349.31
2022-09-13T18:48:49.102Z,99334.22
2022-09-13T18:51:19.765Z,99336.69
2022-09-13T18:53:50.798Z,99341.59
2022-09-13T18:56:23.426Z,99337.97
2022-09-13T18:58:53.008Z,99339.50
2022-09-13T19:01:23.649Z,99338.81
2022-09-13T19:03:55.105Z,99339.44
2022-09-13T19:06:26.313Z,99346.59
2022-09-13T19:08:57.935Z,99353.22
2022-09-13T19:11:49.497Z,99344.81
2022-09-13T19:14:20.019Z,99358.25
2022-09-13T19:16:48.626Z,99366.03
2022-09-13T19:19:17.669Z,99361.34
2022-09-13T19:21:46.807Z,99366.47
2022-09-13T19:24:18.848Z,99360.66
2022-09-13T19:26:50.506Z,99350.13
2022-09-13T19:29:21.509Z,99352.34
2022-09-13T19:31:52.054Z,99340.03
2022-09-13T19:34:22.918Z,99344.56
2022-09-13T19:36:57.169Z,99348.28
2022-09-13T19:39:30.061Z,99355.06
2022-09-13T19:42:00.885Z,99354.09
2022-09-13T19:44:29.929Z,99334.75
2022-09-13T19:47:42.805Z,99339.69
2022-09-13T19:49:50.541Z,99336.22
2022-09-13T19:52:19.011Z,99333.06
2022-09-13T19:54:49.861Z,99330.41
2022-09-13T19:57:20.102Z,99328.66
2022-09-13T19:59:49.911Z,99336.06
2022-09-13T20:02:19.075Z,99336.88
2022-09-13T20:04:49.532Z,99336.69
2022-09-13T20:07:18.743Z,99338.13
2022-09-13T20:09:48.705Z,99338.00
2022-09-13T20:12:17.527Z,99335.84
2022-09-13T20:14:45.769Z,99326.66
2022-09-13T20:17:14.103Z,99330.25
2022-09-13T20:19:47.636Z,99328.91
2022-09-13T20:22:17.854Z,99326.91
2022-09-13T20:24:48.970Z,99332.22
2022-09-13T20:27:17.815Z,99331.22
2022-09-13T20:29:46.698Z,99339.34
2022-09-13T20:32:15.049Z,99336.59
2022-09-13T20:35:11.830Z,99330.13
2022-09-13T20:37:46.138Z,99340.41
2022-09-13T20:40:17.533Z,99335.28
2022-09-13T20:42:46.603Z,99331.75
2022-09-13T20:45:18.002Z,99327.16
2022-09-13T20:47:46.665Z,99318.41
2022-09-13T20:50:15.057Z,99321.44
2022-09-13T20:52:44.691Z,99336.63
2022-09-13T20:55:12.996Z,99339.63
2022-09-13T20:57:43.131Z,99339.63
2022-09-13T21:00:13.041Z,99334.97
2022-09-13T21:02:41.931Z,99335.75
2022-09-13T21:05:11.375Z,99328.28
2022-09-13T21:07:57.242Z,99346.34
2022-09-13T21:10:26.567Z,99354.56
2022-09-13T21:12:56.791Z,99362.81
2022-09-13T21:15:25.161Z,99369.06
2022-09-13T21:17:53.666Z,99364.34
2022-09-13T21:20:23.480Z,99343.59
2022-09-13T21:22:52.695Z,99347.16
2022-09-13T21:25:21.121Z,99325.47
2022-09-13T21:27:49.631Z,99320.03
2022-09-13T21:30:19.461Z,99317.75
2022-09-13T21:32:47.837Z,99331.78
2022-09-13T21:35:16.497Z,99338.84
2022-09-13T21:37:45.242Z,99349.09
2022-09-13T21:40:14.338Z,99353.81
2022-09-13T21:42:43.307Z,99357.41
2022-09-13T21:45:13.827Z,99366.94
2022-09-13T21:47:45.715Z,99380.88
2022-09-13T21:50:15.286Z,99387.34
2022-09-13T21:52:43.480Z,99393.72
2022-09-13T21:55:11.983Z,99375.19
2022-09-13T21:57:40.918Z,99344.34
2022-09-13T22:00:13.626Z,99349.00
2022-09-13T22:02:45.426Z,99359.06
2022-09-13T22:05:13.753Z,99358.09
2022-09-13T22:07:42.603Z,99359.63
2022-09-13T22:10:11.283Z,99358.28
2022-09-13T22:12:40.325Z,99333.34
2022-09-13T22:15:11.009Z,99333.63
2022-09-13T22:17:39.240Z,99335.38
2022-09-13T22:20:11.147Z,99325.72
2022-09-13T22:22:39.429Z,99331.69
2022-09-13T22:25:09.632Z,99330.06
2022-09-13T22:27:42.904Z,99323.94
2022-09-13T22:30:13.598Z,99315.69
2022-09-13T22:32:42.337Z,99308.84
2022-09-13T22:35:12.455Z,99313.59
2022-09-13T22:37:40.906Z,99327.09
2022-09-13T22:40:11.028Z,99335.50
2022-09-13T22:42:39.334Z,99336.25
2022-09-13T22:45:09.091Z,99324.03
2022-09-13T22:47:37.693Z,99330.03
2022-09-13T22:50:07.006Z,99318.50
2022-09-13T22:52:36.865Z,99311.03
2022-09-13T22:55:07.107Z,99296.50
2022-09-13T22:57:35.352Z,99290.16
2022-09-13T23:00:07.028Z,99283.63
2022-09-13T23:02:36.724Z,99283.84
2022-09-13T23:05:09.279Z,99282.34
2022-09-13T23:07:39.560Z,99278.78
2022-09-13T23:10:22.072Z,99283.41
2022-09-13T23:12:50.252Z,99276.44
2022-09-13T23:15:19.876Z,99281.44
2022-09-13T23:17:48.416Z,99271.16
2022-09-13T23:20:20.001Z,99266.63
2022-09-13T23:23:05.345Z,99261.28
2022-09-13T23:25:34.496Z,99269.28
2022-09-13T23:28:03.095Z,99269.00
2022-09-13T23:30:31.788Z,99262.25
2022-09-13T23:33:00.565Z,99267.97
2022-09-13T23:35:29.513Z,99271.00
2022-09-13T23:37:57.773Z,99284.56
2022-09-13T23:40:27.716Z,99276.03
2022-09-13T23:42:56.291Z,99266.28
2022-09-13T23:45:24.528Z,99257.00
2022-09-13T23:47:53.027Z,99256.88
2022-09-13T23:50:21.363Z,99250.47
2022-09-13T23:52:49.800Z,99248.50
2022-09-13T23:55:19.326Z,99248.78
2022-09-13T23:57:50.769Z,99242.44
